createdAt,value
2016-07-05T00:00:30.740Z,0
2016-07-05T00:01:31.044Z,0
2016-07-05T00:02:30.929Z,0
2016-07-05T00:03:31.014Z,0
2016-07-05T00:04:30.717Z,0
2016-07-05T00:05:31.040Z,0
2016-07-05T00:06:30.970Z,0
2016-07-05T00:07:30.928Z,0
2016-07-05T00:08:30.940Z,0
2016-07-05T00:09:30.743Z,0
2016-07-05T00:10:30.938Z,0
2016-07-05T00:11:30.924Z,0
2016-07-05T00:12:30.737Z,0
2016-07-05T00:13:31.016Z,0
2016-07-05T00:14:30.729Z,0
2016-07-05T00:15:30.727Z,0
2016-07-05T00:16:30.749Z,0
2016-07-05T00:17:31.056Z,0
2016-07-05T00:18:30.887Z,0
2016-07-05T00:19:31.034Z,0
2016-07-05T00:20:31.165Z,0
2016-07-05T00:21:31.055Z,0
2016-07-05T00:22:30.819Z,0
2016-07-05T00:23:31.109Z,0
2016-07-05T00:24:30.926Z,0
2016-07-05T00:25:30.811Z,0
2016-07-05T00:26:30.812Z,0
2016-07-05T00:27:31.291Z,0
2016-07-05T00:28:31.114Z,0
2016-07-05T00:29:31.112Z,0
2016-07-05T00:30:30.827Z,0
2016-07-05T00:31:31.089Z,0
2016-07-05T00:32:31.083Z,0
2016-07-05T00:33:31.050Z,0
2016-07-05T00:34:31.148Z,0
2016-07-05T00:35:31.074Z,0
2016-07-05T00:36:31.099Z,0
2016-07-05T00:37:31.131Z,0
2016-07-05T00:38:31.249Z,0
2016-07-05T00:39:30.931Z,0
2016-07-05T00:40:30.946Z,0
2016-07-05T00:41:31.168Z,0
2016-07-05T00:42:30.967Z,0
2016-07-05T00:43:30.957Z,0
2016-07-05T00:44:31.789Z,0
2016-07-05T00:45:30.980Z,0
2016-07-05T00:46:30.976Z,0
2016-07-05T00:47:31.148Z,0
2016-07-05T00:48:31.029Z,0
2016-07-05T00:49:31.074Z,0
2016-07-05T00:50:30.953Z,0
2016-07-05T00:51:31.150Z,0
2016-07-05T00:52:31.129Z,0
2016-07-05T00:53:31.136Z,0
2016-07-05T00:54:31.111Z,0
2016-07-05T00:55:30.940Z,0
2016-07-05T00:56:30.926Z,0
2016-07-05T00:57:31.137Z,0
2016-07-05T00:58:31.183Z,0
2016-07-05T00:59:31.161Z,0
2016-07-05T01:00:31.106Z,0
2016-07-05T01:01:31.204Z,0
2016-07-05T01:02:31.161Z,0
2016-07-05T01:03:31.135Z,0
2016-07-05T01:04:31.071Z,0
2016-07-05T01:05:31.091Z,0
2016-07-05T01:06:30.893Z,0
2016-07-05T01:07:31.046Z,0
2016-07-05T01:08:31.136Z,0
2016-07-05T01:09:31.063Z,0
2016-07-05T01:10:31.141Z,0
2016-07-05T01:11:31.160Z,0
2016-07-05T01:12:31.041Z,0
2016-07-05T01:13:31.108Z,0
2016-07-05T01:14:30.954Z,0
2016-07-05T01:15:30.929Z,0
2016-07-05T01:16:30.833Z,0
2016-07-05T01:17:30.841Z,0
2016-07-05T01:18:31.105Z,0
2016-07-05T01:19:31.040Z,0
2016-07-05T01:20:31.121Z,0
2016-07-05T01:21:30.835Z,0
2016-07-05T01:22:31.017Z,0
2016-07-05T01:23:31.012Z,0
2016-07-05T01:24:31.059Z,0
2016-07-05T01:25:30.916Z,0
2016-07-05T01:26:30.820Z,0
2016-07-05T01:27:30.760Z,0
2016-07-05T01:28:31.563Z,0
2016-07-05T01:29:30.986Z,0
2016-07-05T01:30:31.098Z,0
2016-07-05T01:31:30.962Z,0
2016-07-05T01:32:31.022Z,0
2016-07-05T01:33:30.795Z,0
2016-07-05T01:34:31.063Z,0
2016-07-05T01:35:30.951Z,0
2016-07-05T01:36:30.755Z,0
2016-07-05T01:37:31.034Z,0
2016-07-05T01:38:30.946Z,0
2016-07-05T01:39:30.756Z,0
2016-07-05T01:40:31.041Z,0
2016-07-05T01:41:30.983Z,0
2016-07-05T01:42:31.029Z,0
2016-07-05T01:43:30.961Z,0
2016-07-05T01:44:31.009Z,0
2016-07-05T01:45:30.736Z,0
2016-07-05T01:46:30.755Z,0
2016-07-05T01:47:30.733Z,0
2016-07-05T01:48:31.022Z,0
2016-07-05T01:49:30.951Z,0
2016-07-05T01:50:30.746Z,0
2016-07-05T01:51:30.711Z,0
2016-07-05T01:52:30.713Z,0
2016-07-05T01:53:30.775Z,0
2016-07-05T01:54:31.021Z,0
2016-07-05T01:55:30.950Z,0
2016-07-05T01:56:30.692Z,0
2016-07-05T01:57:30.686Z,0
2016-07-05T01:58:30.962Z,0
2016-07-05T01:59:30.946Z,0
2016-07-05T02:00:30.827Z,0
2016-07-05T02:01:31.131Z,0
2016-07-05T02:02:30.895Z,0
2016-07-05T02:03:31.514Z,0
2016-07-05T02:04:31.139Z,0
2016-07-05T02:05:31.000Z,0
2016-07-05T02:06:30.725Z,0
2016-07-05T02:07:30.999Z,0
2016-07-05T02:08:31.124Z,0
2016-07-05T02:09:30.900Z,0
2016-07-05T02:10:30.916Z,0
2016-07-05T02:11:30.896Z,0
2016-07-05T02:12:30.820Z,0
2016-07-05T02:13:30.818Z,0
2016-07-05T02:14:30.767Z,0
2016-07-05T02:15:30.899Z,0
2016-07-05T02:16:30.615Z,0
2016-07-05T02:17:31.625Z,0
2016-07-05T02:18:30.877Z,0
2016-07-05T02:19:30.870Z,0
2016-07-05T02:20:30.893Z,0
2016-07-05T02:21:30.705Z,0
2016-07-05T02:22:30.849Z,0
2016-07-05T02:23:30.557Z,0
2016-07-05T02:24:30.786Z,0
2016-07-05T02:25:30.863Z,0
2016-07-05T02:26:30.595Z,0
2016-07-05T02:27:30.768Z,0
2016-07-05T02:28:30.577Z,0
2016-07-05T02:29:30.789Z,0
2016-07-05T02:30:30.843Z,0
2016-07-05T02:31:30.757Z,4
2016-07-05T02:32:30.828Z,4
2016-07-05T02:33:30.837Z,0
2016-07-05T02:34:30.716Z,0
2016-07-05T02:35:30.643Z,4
2016-07-05T02:36:30.740Z,4
2016-07-05T02:37:30.557Z,4
2016-07-05T02:38:30.720Z,4
2016-07-05T02:39:30.750Z,8
2016-07-05T02:40:30.849Z,4
2016-07-05T02:41:30.748Z,8
2016-07-05T02:42:30.541Z,8
2016-07-05T02:43:30.784Z,8
2016-07-05T02:44:30.519Z,12
2016-07-05T02:45:30.792Z,12
2016-07-05T02:46:30.593Z,16
2016-07-05T02:47:30.696Z,16
2016-07-05T02:48:30.698Z,20
2016-07-05T02:49:30.735Z,24
2016-07-05T02:50:30.785Z,24
2016-07-05T02:51:30.810Z,28
2016-07-05T02:52:30.508Z,28
2016-07-05T02:53:30.773Z,32
2016-07-05T02:54:30.738Z,36
2016-07-05T02:55:30.614Z,44
2016-07-05T02:56:30.500Z,48
2016-07-05T02:57:30.539Z,52
2016-07-05T02:58:30.586Z,52
2016-07-05T02:59:30.686Z,56
2016-07-05T03:00:30.735Z,64
2016-07-05T03:01:30.724Z,68
2016-07-05T03:02:30.492Z,72
2016-07-05T03:03:30.751Z,80
2016-07-05T03:04:30.720Z,88
2016-07-05T03:05:30.469Z,96
2016-07-05T03:06:30.467Z,104
2016-07-05T03:07:30.552Z,112
2016-07-05T03:08:30.706Z,128
2016-07-05T03:09:30.626Z,136
2016-07-05T03:10:30.654Z,144
2016-07-05T03:11:30.701Z,152
2016-07-05T03:12:30.471Z,160
2016-07-05T03:13:30.604Z,164
2016-07-05T03:14:30.700Z,172
2016-07-05T03:15:32.139Z,180
2016-07-05T03:16:30.609Z,188
2016-07-05T03:17:30.618Z,188
2016-07-05T03:18:31.449Z,192
2016-07-05T03:19:30.707Z,196
2016-07-05T03:20:30.502Z,200
2016-07-05T03:21:30.443Z,208
2016-07-05T03:22:30.430Z,216
2016-07-05T03:23:30.389Z,232
2016-07-05T03:24:30.675Z,252
2016-07-05T03:25:30.401Z,268
2016-07-05T03:26:30.707Z,276
2016-07-05T03:27:30.557Z,292
2016-07-05T03:28:30.414Z,304
2016-07-05T03:29:30.659Z,316
2016-07-05T03:30:30.403Z,328
2016-07-05T03:31:30.717Z,348
2016-07-05T03:32:30.388Z,380
2016-07-05T03:33:30.398Z,420
2016-07-05T03:34:30.378Z,452
2016-07-05T03:35:30.621Z,496
2016-07-05T03:36:30.353Z,544
2016-07-05T03:37:30.548Z,580
2016-07-05T03:38:30.359Z,624
2016-07-05T03:39:30.352Z,676
2016-07-05T03:40:30.662Z,712
2016-07-05T03:41:30.511Z,736
2016-07-05T03:42:30.317Z,752
2016-07-05T03:43:30.306Z,756
2016-07-05T03:44:30.512Z,680
2016-07-05T03:45:30.340Z,676
2016-07-05T03:46:30.440Z,784
2016-07-05T03:47:30.644Z,828
2016-07-05T03:48:30.529Z,836
2016-07-05T03:49:30.422Z,832
2016-07-05T03:50:30.790Z,812
2016-07-05T03:51:30.452Z,776
2016-07-05T03:52:30.289Z,748
2016-07-05T03:53:30.462Z,728
2016-07-05T03:54:30.571Z,720
2016-07-05T03:55:30.592Z,736
2016-07-05T03:56:30.650Z,768
2016-07-05T03:57:30.369Z,796
2016-07-05T03:58:30.300Z,844
2016-07-05T03:59:30.567Z,912
2016-07-05T04:00:30.322Z,992
2016-07-05T04:01:30.561Z,1080
2016-07-05T04:02:30.502Z,1188
2016-07-05T04:03:30.567Z,1328
2016-07-05T04:04:30.489Z,1420
2016-07-05T04:05:30.283Z,1476
2016-07-05T04:06:30.355Z,1512
2016-07-05T04:07:30.556Z,1532
2016-07-05T04:08:30.417Z,1572
2016-07-05T04:09:30.477Z,1636
2016-07-05T04:10:30.464Z,1780
2016-07-05T04:11:30.263Z,1924
2016-07-05T04:12:30.247Z,2060
2016-07-05T04:13:30.301Z,2136
2016-07-05T04:14:30.259Z,2132
2016-07-05T04:15:30.431Z,2148
2016-07-05T04:16:30.534Z,2180
2016-07-05T04:17:30.545Z,2220
2016-07-05T04:18:30.507Z,2244
2016-07-05T04:19:30.254Z,2316
2016-07-05T04:20:30.515Z,2416
2016-07-05T04:21:31.080Z,2524
2016-07-05T04:22:30.409Z,2620
2016-07-05T04:23:30.220Z,2748
2016-07-05T04:24:30.213Z,2872
2016-07-05T04:25:30.803Z,2972
2016-07-05T04:26:30.389Z,3000
2016-07-05T04:27:30.202Z,3024
2016-07-05T04:28:30.234Z,3108
2016-07-05T04:29:30.177Z,3160
2016-07-05T04:30:30.647Z,3228
2016-07-05T04:31:30.401Z,3292
2016-07-05T04:32:30.178Z,3444
2016-07-05T04:33:30.433Z,3504
2016-07-05T04:34:30.474Z,3532
2016-07-05T04:35:30.365Z,3812
2016-07-05T04:36:30.264Z,4056
2016-07-05T04:37:30.188Z,4068
2016-07-05T04:38:30.374Z,3696
2016-07-05T04:39:30.420Z,3280
2016-07-05T04:40:30.241Z,3232
2016-07-05T04:41:30.186Z,3336
2016-07-05T04:42:30.157Z,3620
2016-07-05T04:43:30.576Z,3828
2016-07-05T04:44:30.130Z,3764
2016-07-05T04:45:30.323Z,3636
2016-07-05T04:46:30.135Z,3512
2016-07-05T04:47:30.441Z,3468
2016-07-05T04:48:30.139Z,3460
2016-07-05T04:49:30.133Z,3616
2016-07-05T04:50:30.444Z,3864
2016-07-05T04:51:30.135Z,3876
2016-07-05T04:52:30.384Z,3848
2016-07-05T04:53:30.315Z,3768
2016-07-05T04:54:30.361Z,3768
2016-07-05T04:55:30.111Z,3972
2016-07-05T04:56:30.107Z,4092
2016-07-05T04:57:30.221Z,4300
2016-07-05T04:58:30.111Z,4504
2016-07-05T04:59:30.190Z,4316
2016-07-05T05:00:30.114Z,3940
2016-07-05T05:01:30.181Z,3724
2016-07-05T05:02:30.101Z,3840
2016-07-05T05:03:30.113Z,3900
2016-07-05T05:04:30.150Z,3872
2016-07-05T05:05:30.150Z,4024
2016-07-05T05:06:30.149Z,4284
2016-07-05T05:07:30.103Z,4228
2016-07-05T05:08:30.126Z,4164
2016-07-05T05:09:30.305Z,4160
2016-07-05T05:10:30.120Z,4408
2016-07-05T05:11:30.321Z,4792
2016-07-05T05:12:30.344Z,4924
2016-07-05T05:13:30.096Z,4808
2016-07-05T05:14:30.318Z,4648
2016-07-05T05:15:30.264Z,4868
2016-07-05T05:16:30.072Z,5432
2016-07-05T05:17:30.407Z,5832
2016-07-05T05:18:30.258Z,6036
2016-07-05T05:19:30.240Z,6140
2016-07-05T05:20:30.044Z,6492
2016-07-05T05:21:30.035Z,7040
2016-07-05T05:22:30.220Z,8092
2016-07-05T05:23:30.884Z,9292
2016-07-05T05:24:30.292Z,9980
2016-07-05T05:25:30.143Z,10304
2016-07-05T05:26:30.046Z,10168
2016-07-05T05:27:30.049Z,9852
2016-07-05T05:28:30.047Z,9268
2016-07-05T05:29:30.367Z,8532
2016-07-05T05:30:30.249Z,8208
2016-07-05T05:31:30.239Z,8072
2016-07-05T05:32:30.021Z,7556
2016-07-05T05:33:30.223Z,6484
2016-07-05T05:34:30.144Z,5652
2016-07-05T05:35:30.266Z,5868
2016-07-05T05:36:30.024Z,6732
2016-07-05T05:37:30.246Z,7500
2016-07-05T05:38:30.303Z,7572
2016-07-05T05:39:30.022Z,7248
2016-07-05T05:40:30.219Z,7048
2016-07-05T05:41:30.115Z,7464
2016-07-05T05:42:30.199Z,7852
2016-07-05T05:43:30.017Z,8004
2016-07-05T05:44:30.105Z,8352
2016-07-05T05:45:30.218Z,8680
2016-07-05T05:46:30.033Z,8960
2016-07-05T05:47:30.223Z,9204
2016-07-05T05:48:30.218Z,9440
2016-07-05T05:49:30.218Z,9508
2016-07-05T05:50:30.331Z,9496
2016-07-05T05:51:30.200Z,8988
2016-07-05T05:52:30.244Z,8960
2016-07-05T05:53:30.209Z,9804
2016-07-05T05:54:30.026Z,10152
2016-07-05T05:55:30.250Z,10760
2016-07-05T05:56:30.014Z,10768
2016-07-05T05:57:30.042Z,10620
2016-07-05T05:58:30.253Z,10432
2016-07-05T05:59:30.217Z,9444
2016-07-05T06:00:30.029Z,9132
2016-07-05T06:01:30.013Z,8612
2016-07-05T06:02:30.019Z,8564
2016-07-05T06:03:30.145Z,9044
2016-07-05T06:04:30.259Z,9440
2016-07-05T06:05:30.211Z,8932
2016-07-05T06:06:30.014Z,8664
2016-07-05T06:07:30.254Z,9516
2016-07-05T06:08:30.203Z,9328
2016-07-05T06:09:30.219Z,8852
2016-07-05T06:10:30.189Z,10184
2016-07-05T06:11:30.219Z,12564
2016-07-05T06:12:30.201Z,13416
2016-07-05T06:13:30.082Z,12732
2016-07-05T06:14:30.255Z,11152
2016-07-05T06:15:30.014Z,9888
2016-07-05T06:16:30.597Z,8956
2016-07-05T06:17:29.975Z,8872
2016-07-05T06:18:30.103Z,9208
2016-07-05T06:19:30.007Z,10692
2016-07-05T06:20:30.111Z,11028
2016-07-05T06:21:30.179Z,11948
2016-07-05T06:22:30.255Z,12260
2016-07-05T06:23:30.172Z,11396
2016-07-05T06:24:30.163Z,9972
2016-07-05T06:25:30.179Z,8932
2016-07-05T06:26:29.971Z,9444
2016-07-05T06:27:30.201Z,9096
2016-07-05T06:28:30.241Z,9928
2016-07-05T06:29:30.145Z,10420
2016-07-05T06:30:30.188Z,9440
2016-07-05T06:31:30.137Z,8588
2016-07-05T06:32:30.104Z,8428
2016-07-05T06:33:30.306Z,7512
2016-07-05T06:34:30.171Z,7760
2016-07-05T06:35:30.049Z,7932
2016-07-05T06:36:29.967Z,7760
2016-07-05T06:37:30.182Z,7432
2016-07-05T06:38:30.151Z,7720
2016-07-05T06:39:30.143Z,6528
2016-07-05T06:40:30.232Z,7196
2016-07-05T06:41:30.129Z,7284
2016-07-05T06:42:30.237Z,7048
2016-07-05T06:43:30.206Z,7424
2016-07-05T06:44:30.150Z,12788
2016-07-05T06:45:29.960Z,16028
2016-07-05T06:46:30.572Z,18144
2016-07-05T06:47:30.161Z,9952
2016-07-05T06:48:30.156Z,10064
2016-07-05T06:49:30.080Z,13680
2016-07-05T06:50:30.219Z,25376
2016-07-05T06:51:30.154Z,31136
2016-07-05T06:52:30.186Z,19904
2016-07-05T06:53:30.079Z,13316
2016-07-05T06:54:30.202Z,42688
2016-07-05T06:55:30.262Z,32704
2016-07-05T06:56:30.209Z,36288
2016-07-05T06:57:29.963Z,57152
2016-07-05T06:58:30.195Z,51232
2016-07-05T06:59:30.224Z,47360
2016-07-05T07:00:30.243Z,44640
2016-07-05T07:01:30.134Z,51040
2016-07-05T07:02:30.201Z,20064
2016-07-05T07:03:30.166Z,14124
2016-07-05T07:04:29.951Z,13200
2016-07-05T07:05:30.187Z,11104
2016-07-05T07:06:29.960Z,13336
2016-07-05T07:07:30.177Z,16520
2016-07-05T07:08:30.187Z,7672
2016-07-05T07:09:30.139Z,7248
2016-07-05T07:10:30.191Z,8732
2016-07-05T07:11:30.185Z,9988
2016-07-05T07:12:29.995Z,11672
2016-07-05T07:13:30.177Z,12676
2016-07-05T07:14:30.207Z,15568
2016-07-05T07:15:30.462Z,15380
2016-07-05T07:16:29.994Z,14564
2016-07-05T07:17:30.267Z,16056
2016-07-05T07:18:30.275Z,17120
2016-07-05T07:19:30.201Z,17696
2016-07-05T07:20:30.171Z,28672
2016-07-05T07:21:30.174Z,14792
2016-07-05T07:22:29.994Z,11264
2016-07-05T07:23:30.170Z,10656
2016-07-05T07:24:30.179Z,10584
2016-07-05T07:25:30.250Z,11348
2016-07-05T07:26:29.986Z,12476
2016-07-05T07:27:30.272Z,12852
2016-07-05T07:28:30.253Z,14188
2016-07-05T07:29:30.045Z,14616
2016-07-05T07:30:30.285Z,14224
2016-07-05T07:31:30.002Z,13036
2016-07-05T07:32:30.195Z,11280
2016-07-05T07:33:30.248Z,12044
2016-07-05T07:34:30.187Z,11624
2016-07-05T07:35:30.202Z,11136
2016-07-05T07:36:29.990Z,10428
2016-07-05T07:37:30.123Z,10728
2016-07-05T07:38:30.209Z,13696
2016-07-05T07:39:30.128Z,12672
2016-07-05T07:40:30.214Z,52192
2016-07-05T07:41:30.263Z,38240
2016-07-05T07:42:30.250Z,51072
2016-07-05T07:43:30.219Z,74112
2016-07-05T07:44:30.340Z,72512
2016-07-05T07:45:30.205Z,31936
2016-07-05T07:46:30.032Z,40224
2016-07-05T07:47:30.346Z,54336
2016-07-05T07:48:30.258Z,68768
2016-07-05T07:49:30.347Z,70176
2016-07-05T07:50:30.926Z,70304
2016-07-05T07:51:30.226Z,75008
2016-07-05T07:52:30.261Z,74624
2016-07-05T07:53:30.241Z,74944
2016-07-05T07:54:30.479Z,75552
2016-07-05T07:55:30.220Z,75264
2016-07-05T07:56:30.069Z,75136
2016-07-05T07:57:30.967Z,79616
2016-07-05T07:58:30.268Z,80576
2016-07-05T07:59:30.264Z,81728
2016-07-05T08:00:30.273Z,83872
2016-07-05T08:01:30.373Z,82368
2016-07-05T08:02:30.368Z,76480
2016-07-05T08:03:30.406Z,73472
2016-07-05T08:04:30.115Z,53344
2016-07-05T08:05:30.336Z,25344
2016-07-05T08:06:30.346Z,15640
2016-07-05T08:07:30.338Z,16416
2016-07-05T08:08:30.234Z,18016
2016-07-05T08:09:30.343Z,18560
2016-07-05T08:10:30.362Z,18144
2016-07-05T08:11:30.396Z,17536
2016-07-05T08:12:30.158Z,17024
2016-07-05T08:13:30.372Z,16896
2016-07-05T08:14:30.446Z,14976
2016-07-05T08:15:30.452Z,13044
2016-07-05T08:16:30.213Z,11256
2016-07-05T08:17:30.425Z,12600
2016-07-05T08:18:30.294Z,11964
2016-07-05T08:19:30.968Z,11976
2016-07-05T08:20:30.228Z,12604
2016-07-05T08:21:30.550Z,13240
2016-07-05T08:22:30.595Z,10692
2016-07-05T08:23:30.371Z,10992
2016-07-05T08:24:46.356Z,10588
2016-07-05T08:25:30.580Z,10380
2016-07-05T08:26:31.541Z,12468
2016-07-05T08:27:30.647Z,15052
2016-07-05T08:28:30.445Z,15132
2016-07-05T08:29:31.189Z,14988
2016-07-05T08:30:30.542Z,17344
2016-07-05T08:31:30.666Z,18944
2016-07-05T08:32:30.586Z,18976
2016-07-05T08:33:30.572Z,19840
2016-07-05T08:34:30.582Z,21984
2016-07-05T08:35:30.561Z,19520
2016-07-05T08:36:30.394Z,17536
2016-07-05T08:37:32.017Z,20352
2016-07-05T08:38:30.624Z,19424
2016-07-05T08:39:30.447Z,18688
2016-07-05T08:40:30.730Z,20096
2016-07-05T08:41:30.661Z,18816
2016-07-05T08:42:31.324Z,16896
2016-07-05T08:43:30.598Z,17248
2016-07-05T08:44:30.636Z,16928
2016-07-05T08:45:30.685Z,17760
2016-07-05T08:46:30.439Z,18784
2016-07-05T08:47:30.644Z,18336
2016-07-05T08:48:30.719Z,18720
2016-07-05T08:49:31.308Z,16200
2016-07-05T08:50:30.683Z,14804
2016-07-05T08:51:30.613Z,15064
2016-07-05T08:52:31.306Z,13752
2016-07-05T08:53:30.463Z,12812
2016-07-05T08:54:30.640Z,11100
2016-07-05T08:55:30.698Z,11664
2016-07-05T08:56:31.103Z,12592
2016-07-05T08:57:30.567Z,12096
2016-07-05T08:58:30.557Z,11656
2016-07-05T08:59:30.736Z,13368
2016-07-05T09:00:30.699Z,14912
2016-07-05T09:01:30.548Z,14100
2016-07-05T09:02:30.468Z,13772
2016-07-05T09:03:30.784Z,14632
2016-07-05T09:04:30.733Z,14920
2016-07-05T09:05:30.710Z,14668
2016-07-05T09:06:30.451Z,13232
2016-07-05T09:07:30.715Z,10052
2016-07-05T09:08:30.551Z,7812
2016-07-05T09:09:30.712Z,6928
2016-07-05T09:10:30.694Z,6300
2016-07-05T09:11:30.761Z,6488
2016-07-05T09:12:30.748Z,6596
2016-07-05T09:13:30.581Z,6928
2016-07-05T09:14:30.962Z,7576
2016-07-05T09:15:30.752Z,7204
2016-07-05T09:16:30.597Z,6732
2016-07-05T09:17:30.998Z,6836
2016-07-05T09:18:30.727Z,7396
2016-07-05T09:19:30.625Z,10048
2016-07-05T09:20:30.671Z,12480
2016-07-05T09:21:30.598Z,12328
2016-07-05T09:22:30.597Z,11856
2016-07-05T09:23:33.909Z,13416
2016-07-05T09:24:31.722Z,14488
2016-07-05T09:25:31.471Z,14184
2016-07-05T09:26:30.784Z,18112
2016-07-05T09:27:31.471Z,15508
2016-07-05T09:28:30.823Z,15256
2016-07-05T09:29:32.495Z,15992
2016-07-05T09:30:30.787Z,17120
2016-07-05T09:31:30.741Z,15620
2016-07-05T09:32:30.575Z,16148
2016-07-05T09:33:30.567Z,15560
2016-07-05T09:34:30.772Z,14780
2016-07-05T09:35:30.979Z,14312
2016-07-05T09:36:30.571Z,13804
2016-07-05T09:37:30.756Z,13300
2016-07-05T09:38:31.064Z,12064
2016-07-05T09:39:30.830Z,12096
2016-07-05T09:40:30.604Z,13260
2016-07-05T09:41:30.810Z,14648
2016-07-05T09:42:30.585Z,16308
2016-07-05T09:43:30.791Z,15628
2016-07-05T09:44:30.912Z,14024
2016-07-05T09:45:30.888Z,13888
2016-07-05T09:46:30.582Z,12808
2016-07-05T09:47:30.944Z,10144
2016-07-05T09:48:30.898Z,8660
2016-07-05T09:49:30.776Z,7952
2016-07-05T09:50:30.929Z,9116
2016-07-05T09:51:30.768Z,10124
2016-07-05T09:52:30.636Z,10112
2016-07-05T09:53:30.647Z,8392
2016-07-05T09:54:30.813Z,8448
2016-07-05T09:55:30.921Z,10320
2016-07-05T09:56:30.642Z,12804
2016-07-05T09:57:30.827Z,16064
2016-07-05T09:58:30.920Z,14016
2016-07-05T09:59:30.846Z,11904
2016-07-05T10:00:30.852Z,10520
2016-07-05T10:01:30.848Z,9556
2016-07-05T10:02:30.908Z,8380
2016-07-05T10:03:30.930Z,7372
2016-07-05T10:04:30.868Z,5728
2016-07-05T10:05:30.908Z,5120
2016-07-05T10:06:30.670Z,7688
2016-07-05T10:07:30.867Z,9088
2016-07-05T10:08:30.904Z,7572
2016-07-05T10:09:30.941Z,6468
2016-07-05T10:10:30.933Z,7340
2016-07-05T10:11:30.887Z,7088
2016-07-05T10:12:30.854Z,5396
2016-07-05T10:13:30.892Z,4880
2016-07-05T10:14:30.943Z,4292
2016-07-05T10:15:30.917Z,4132
2016-07-05T10:16:30.681Z,4312
2016-07-05T10:17:30.868Z,5672
2016-07-05T10:18:30.883Z,6324
2016-07-05T10:19:30.894Z,6996
2016-07-05T10:20:30.900Z,8848
2016-07-05T10:21:30.901Z,10616
2016-07-05T10:22:31.668Z,11112
2016-07-05T10:23:30.708Z,10156
2016-07-05T10:24:30.888Z,8924
2016-07-05T10:25:30.815Z,6820
2016-07-05T10:26:30.756Z,5136
2016-07-05T10:27:30.971Z,4576
2016-07-05T10:28:30.723Z,6100
2016-07-05T10:29:30.942Z,7644
2016-07-05T10:30:30.713Z,9616
2016-07-05T10:31:31.411Z,10368
2016-07-05T10:32:31.540Z,9288
2016-07-05T10:33:30.776Z,8688
2016-07-05T10:34:31.717Z,8740
2016-07-05T10:35:30.901Z,9288
2016-07-05T10:36:30.718Z,8480
2016-07-05T10:37:30.724Z,7564
2016-07-05T10:38:30.932Z,6960
2016-07-05T10:39:30.731Z,5736
2016-07-05T10:40:30.920Z,5592
2016-07-05T10:41:31.037Z,5876
2016-07-05T10:42:31.042Z,6720
2016-07-05T10:43:30.752Z,7776
2016-07-05T10:44:30.755Z,8700
2016-07-05T10:45:30.943Z,9416
2016-07-05T10:46:30.752Z,12436
2016-07-05T10:47:30.973Z,13828
2016-07-05T10:48:30.921Z,15312
2016-07-05T10:49:30.952Z,16448
2016-07-05T10:50:31.046Z,14644
2016-07-05T10:51:31.066Z,11428
2016-07-05T10:52:31.072Z,11512
2016-07-05T10:53:31.026Z,11752
2016-07-05T10:54:31.016Z,11964
2016-07-05T10:55:30.964Z,12020
2016-07-05T10:56:30.780Z,11396
2016-07-05T10:57:30.788Z,9104
2016-07-05T10:58:30.945Z,6700
2016-07-05T10:59:30.982Z,6000
2016-07-05T11:00:31.020Z,7112
2016-07-05T11:01:30.780Z,9988
2016-07-05T11:02:30.995Z,13420
2016-07-05T11:03:31.001Z,16416
2016-07-05T11:04:30.911Z,16864
2016-07-05T11:05:30.883Z,15548
2016-07-05T11:06:30.790Z,13096
2016-07-05T11:07:30.962Z,11120
2016-07-05T11:08:31.068Z,10656
2016-07-05T11:09:31.073Z,10588
2016-07-05T11:10:31.017Z,10724
2016-07-05T11:11:30.993Z,10708
2016-07-05T11:12:30.983Z,11948
2016-07-05T11:13:31.048Z,13348
2016-07-05T11:14:31.026Z,14456
2016-07-05T11:15:31.007Z,15624
2016-07-05T11:16:30.813Z,16608
2016-07-05T11:17:31.028Z,15556
2016-07-05T11:18:31.031Z,15656
2016-07-05T11:19:31.617Z,16384
2016-07-05T11:20:31.011Z,17184
2016-07-05T11:21:31.034Z,18400
2016-07-05T11:22:31.025Z,18112
2016-07-05T11:23:30.990Z,16544
2016-07-05T11:24:31.006Z,15012
2016-07-05T11:25:31.072Z,14796
2016-07-05T11:26:30.840Z,15176
2016-07-05T11:27:31.134Z,15764
2016-07-05T11:28:30.940Z,16992
2016-07-05T11:29:31.017Z,17440
2016-07-05T11:30:31.136Z,17504
2016-07-05T11:31:31.151Z,17216
2016-07-05T11:32:31.082Z,16224
2016-07-05T11:33:30.960Z,15976
2016-07-05T11:34:30.851Z,16480
2016-07-05T11:35:31.048Z,16864
2016-07-05T11:36:30.841Z,17440
2016-07-05T11:37:31.063Z,18400
2016-07-05T11:38:31.036Z,17888
2016-07-05T11:39:30.854Z,16576
2016-07-05T11:40:31.123Z,14028
2016-07-05T11:41:31.134Z,9936
2016-07-05T11:42:31.089Z,6916
2016-07-05T11:43:31.075Z,5804
2016-07-05T11:44:31.105Z,4852
2016-07-05T11:45:31.093Z,5264
2016-07-05T11:46:30.893Z,6328
2016-07-05T11:47:31.087Z,10172
2016-07-05T11:48:31.037Z,12460
2016-07-05T11:49:31.195Z,13868
2016-07-05T11:50:31.137Z,13064
2016-07-05T11:51:31.079Z,14216
2016-07-05T11:52:31.171Z,15032
2016-07-05T11:53:31.101Z,15364
2016-07-05T11:54:31.104Z,14116
2016-07-05T11:55:31.851Z,12916
2016-07-05T11:56:30.891Z,12036
2016-07-05T11:57:31.178Z,11700
2016-07-05T11:58:31.098Z,10984
2016-07-05T11:59:31.149Z,10744
2016-07-05T12:00:30.991Z,12076
2016-07-05T12:01:31.110Z,13104
2016-07-05T12:02:30.940Z,13464
2016-07-05T12:03:31.222Z,13268
2016-07-05T12:04:31.192Z,14212
2016-07-05T12:05:31.035Z,14788
2016-07-05T12:06:31.170Z,13228
2016-07-05T12:07:31.145Z,9812
2016-07-05T12:08:31.146Z,8332
2016-07-05T12:09:31.150Z,8804
2016-07-05T12:10:31.203Z,8132
2016-07-05T12:11:31.229Z,7752
2016-07-05T12:12:31.061Z,7032
2016-07-05T12:13:31.168Z,7468
2016-07-05T12:14:31.045Z,8560
2016-07-05T12:15:31.056Z,9108
2016-07-05T12:16:30.957Z,10112
2016-07-05T12:17:31.030Z,9484
2016-07-05T12:18:31.050Z,11624
2016-07-05T12:19:31.063Z,12360
2016-07-05T12:20:31.148Z,12644
2016-07-05T12:21:30.954Z,13488
2016-07-05T12:22:31.620Z,16096
2016-07-05T12:23:31.167Z,17376
2016-07-05T12:24:31.016Z,16960
2016-07-05T12:25:31.002Z,16928
2016-07-05T12:26:30.982Z,15968
2016-07-05T12:27:31.189Z,14952
2016-07-05T12:28:31.159Z,14616
2016-07-05T12:29:31.194Z,14720
2016-07-05T12:30:31.195Z,14692
2016-07-05T12:31:31.190Z,14148
2016-07-05T12:32:31.196Z,13884
2016-07-05T12:33:31.222Z,13708
2016-07-05T12:34:31.172Z,13304
2016-07-05T12:35:30.995Z,13472
2016-07-05T12:36:31.000Z,14040
2016-07-05T12:37:31.105Z,14268
2016-07-05T12:38:31.312Z,15124
2016-07-05T12:39:31.350Z,15328
2016-07-05T12:40:31.265Z,14760
2016-07-05T12:41:31.276Z,13664
2016-07-05T12:42:31.300Z,12436
2016-07-05T12:43:31.271Z,12772
2016-07-05T12:44:31.326Z,12276
2016-07-05T12:45:31.215Z,10428
2016-07-05T12:46:31.049Z,8496
2016-07-05T12:47:31.358Z,6948
2016-07-05T12:48:31.332Z,5736
2016-07-05T12:49:31.250Z,4528
2016-07-05T12:50:31.322Z,4468
2016-07-05T12:51:31.249Z,4744
2016-07-05T12:52:31.072Z,4784
2016-07-05T12:53:31.342Z,4716
2016-07-05T12:54:31.351Z,5272
2016-07-05T12:55:31.366Z,4992
2016-07-05T12:56:31.103Z,5704
2016-07-05T12:57:31.267Z,7108
2016-07-05T12:58:31.350Z,9584
2016-07-05T12:59:31.192Z,9856
2016-07-05T13:00:31.270Z,9612
2016-07-05T13:01:31.287Z,9648
2016-07-05T13:02:31.112Z,9860
2016-07-05T13:03:31.324Z,11672
2016-07-05T13:04:31.179Z,13452
2016-07-05T13:05:31.311Z,14444
2016-07-05T13:06:31.116Z,14556
2016-07-05T13:07:31.111Z,13004
2016-07-05T13:08:31.297Z,11212
2016-07-05T13:09:31.109Z,10308
2016-07-05T13:10:31.118Z,9144
2016-07-05T13:11:31.154Z,7412
2016-07-05T13:12:31.125Z,6664
2016-07-05T13:13:31.317Z,7020
2016-07-05T13:14:31.179Z,7452
2016-07-05T13:15:31.386Z,7912
2016-07-05T13:16:31.117Z,8808
2016-07-05T13:17:31.121Z,10360
2016-07-05T13:18:31.249Z,10836
2016-07-05T13:19:31.311Z,10768
2016-07-05T13:20:31.350Z,10156
2016-07-05T13:21:31.422Z,10116
2016-07-05T13:22:31.243Z,10248
2016-07-05T13:23:31.446Z,10004
2016-07-05T13:24:31.358Z,9832
2016-07-05T13:25:31.380Z,9484
2016-07-05T13:26:31.185Z,9404
2016-07-05T13:27:31.389Z,9824